sensor_id;sensor_type;location;lat;lon;timestamp;P1;durP1;ratioP1;P2;durP2;ratioP2
75320;SDS011;68337;52.196;5.660;2023-05-09T00:00:17;71.88;;;38.50;;
75320;SDS011;68337;52.196;5.660;2023-05-09T00:02:44;65.18;;;37.13;;
75320;SDS011;68337;52.196;5.660;2023-05-09T00:05:10;65.90;;;36.88;;
75320;SDS011;68337;52.196;5.660;2023-05-09T00:07:36;73.15;;;38.28;;
75320;SDS011;68337;52.196;5.660;2023-05-09T00:10:02;68.30;;;37.70;;
75320;SDS011;68337;52.196;5.660;2023-05-09T00:12:28;74.18;;;39.50;;
75320;SDS011;68337;52.196;5.660;2023-05-09T00:14:55;72.82;;;38.55;;
75320;SDS011;68337;52.196;5.660;2023-05-09T00:17:21;76.63;;;40.38;;
75320;SDS011;68337;52.196;5.660;2023-05-09T00:19:50;67.55;;;37.85;;
75320;SDS011;68337;52.196;5.660;2023-05-09T00:22:17;70.82;;;38.28;;
75320;SDS011;68337;52.196;5.660;2023-05-09T00:24:45;69.32;;;39.25;;
75320;SDS011;68337;52.196;5.660;2023-05-09T00:27:12;71.93;;;39.10;;
75320;SDS011;68337;52.196;5.660;2023-05-09T00:29:37;72.72;;;39.10;;
75320;SDS011;68337;52.196;5.660;2023-05-09T00:32:03;79.18;;;40.78;;
75320;SDS011;68337;52.196;5.660;2023-05-09T00:34:29;81.50;;;41.63;;
75320;SDS011;68337;52.196;5.660;2023-05-09T00:36:54;77.88;;;39.15;;
75320;SDS011;68337;52.196;5.660;2023-05-09T00:39:20;72.90;;;39.95;;
75320;SDS011;68337;52.196;5.660;2023-05-09T00:41:46;75.50;;;40.42;;
75320;SDS011;68337;52.196;5.660;2023-05-09T00:44:12;75.45;;;40.45;;
75320;SDS011;68337;52.196;5.660;2023-05-09T00:46:37;73.88;;;39.47;;
75320;SDS011;68337;52.196;5.660;2023-05-09T00:49:04;70.68;;;38.30;;
75320;SDS011;68337;52.196;5.660;2023-05-09T00:51:30;75.82;;;38.20;;
75320;SDS011;68337;52.196;5.660;2023-05-09T00:53:57;72.65;;;38.92;;
75320;SDS011;68337;52.196;5.660;2023-05-09T00:56:22;74.20;;;39.67;;
75320;SDS011;68337;52.196;5.660;2023-05-09T00:58:49;75.28;;;41.30;;
75320;SDS011;68337;52.196;5.660;2023-05-09T01:01:14;71.07;;;39.83;;
75320;SDS011;68337;52.196;5.660;2023-05-09T01:03:40;72.10;;;39.03;;
75320;SDS011;68337;52.196;5.660;2023-05-09T01:06:10;75.47;;;40.35;;
75320;SDS011;68337;52.196;5.660;2023-05-09T01:22:30;70.22;;;39.05;;
75320;SDS011;68337;52.196;5.660;2023-05-09T01:27:52;69.07;;;37.75;;
75320;SDS011;68337;52.196;5.660;2023-05-09T01:30:31;71.43;;;38.53;;
75320;SDS011;68337;52.196;5.660;2023-05-09T01:33:00;71.15;;;38.88;;
75320;SDS011;68337;52.196;5.660;2023-05-09T01:35:30;70.68;;;38.90;;
75320;SDS011;68337;52.196;5.660;2023-05-09T01:37:59;67.18;;;37.90;;
75320;SDS011;68337;52.196;5.660;2023-05-09T01:40:30;67.28;;;38.50;;
75320;SDS011;68337;52.196;5.660;2023-05-09T01:42:59;75.63;;;39.20;;
75320;SDS011;68337;52.196;5.660;2023-05-09T01:45:28;70.88;;;39.75;;
75320;SDS011;68337;52.196;5.660;2023-05-09T01:47:55;73.95;;;38.85;;
75320;SDS011;68337;52.196;5.660;2023-05-09T01:50:21;68.45;;;37.95;;
75320;SDS011;68337;52.196;5.660;2023-05-09T01:52:49;70.47;;;39.33;;
75320;SDS011;68337;52.196;5.660;2023-05-09T01:55:18;75.45;;;41.03;;
75320;SDS011;68337;52.196;5.660;2023-05-09T01:57:46;68.38;;;39.53;;
75320;SDS011;68337;52.196;5.660;2023-05-09T02:00:14;72.85;;;40.00;;
75320;SDS011;68337;52.196;5.660;2023-05-09T02:02:40;70.03;;;38.05;;
75320;SDS011;68337;52.196;5.660;2023-05-09T02:05:10;64.57;;;36.58;;
75320;SDS011;68337;52.196;5.660;2023-05-09T02:07:36;69.43;;;39.00;;
75320;SDS011;68337;52.196;5.660;2023-05-09T02:10:02;66.43;;;38.38;;
75320;SDS011;68337;52.196;5.660;2023-05-09T02:12:30;61.72;;;35.65;;
75320;SDS011;68337;52.196;5.660;2023-05-09T02:14:56;69.78;;;38.47;;
75320;SDS011;68337;52.196;5.660;2023-05-09T02:17:21;69.53;;;38.50;;
75320;SDS011;68337;52.196;5.660;2023-05-09T02:19:47;60.53;;;36.75;;
75320;SDS011;68337;52.196;5.660;2023-05-09T02:22:13;61.45;;;36.72;;
75320;SDS011;68337;52.196;5.660;2023-05-09T02:24:39;63.60;;;36.58;;
75320;SDS011;68337;52.196;5.660;2023-05-09T02:27:05;64.32;;;36.75;;
75320;SDS011;68337;52.196;5.660;2023-05-09T02:29:33;66.53;;;37.50;;
75320;SDS011;68337;52.196;5.660;2023-05-09T02:32:05;64.75;;;37.05;;
75320;SDS011;68337;52.196;5.660;2023-05-09T02:34:36;63.15;;;35.78;;
75320;SDS011;68337;52.196;5.660;2023-05-09T02:37:03;64.68;;;35.95;;
75320;SDS011;68337;52.196;5.660;2023-05-09T02:39:29;62.70;;;35.42;;
75320;SDS011;68337;52.196;5.660;2023-05-09T02:41:56;63.22;;;35.47;;
75320;SDS011;68337;52.196;5.660;2023-05-09T02:44:25;62.30;;;34.33;;
75320;SDS011;68337;52.196;5.660;2023-05-09T02:46:51;61.60;;;34.55;;
75320;SDS011;68337;52.196;5.660;2023-05-09T02:49:16;66.57;;;36.95;;
75320;SDS011;68337;52.196;5.660;2023-05-09T02:51:42;64.93;;;37.30;;
75320;SDS011;68337;52.196;5.660;2023-05-09T02:54:08;60.95;;;34.55;;
75320;SDS011;68337;52.196;5.660;2023-05-09T02:56:33;62.83;;;35.85;;
75320;SDS011;68337;52.196;5.660;2023-05-09T02:58:59;62.85;;;35.42;;
75320;SDS011;68337;52.196;5.660;2023-05-09T03:01:24;57.72;;;34.08;;
75320;SDS011;68337;52.196;5.660;2023-05-09T03:03:50;64.70;;;37.17;;
75320;SDS011;68337;52.196;5.660;2023-05-09T03:06:16;63.97;;;36.90;;
75320;SDS011;68337;52.196;5.660;2023-05-09T03:08:41;67.25;;;37.75;;
75320;SDS011;68337;52.196;5.660;2023-05-09T03:11:07;63.83;;;35.20;;
75320;SDS011;68337;52.196;5.660;2023-05-09T03:13:33;63.80;;;35.38;;
75320;SDS011;68337;52.196;5.660;2023-05-09T03:15:58;63.10;;;36.58;;
75320;SDS011;68337;52.196;5.660;2023-05-09T03:18:24;64.75;;;38.05;;
75320;SDS011;68337;52.196;5.660;2023-05-09T03:20:50;69.10;;;38.05;;
75320;SDS011;68337;52.196;5.660;2023-05-09T03:23:16;66.22;;;37.63;;
75320;SDS011;68337;52.196;5.660;2023-05-09T03:25:41;66.15;;;37.63;;
75320;SDS011;68337;52.196;5.660;2023-05-09T03:28:07;67.63;;;38.33;;
75320;SDS011;68337;52.196;5.660;2023-05-09T03:30:32;65.25;;;37.00;;
75320;SDS011;68337;52.196;5.660;2023-05-09T03:32:58;69.35;;;38.47;;
75320;SDS011;68337;52.196;5.660;2023-05-09T03:35:24;67.47;;;37.95;;
75320;SDS011;68337;52.196;5.660;2023-05-09T03:37:49;71.43;;;38.88;;
75320;SDS011;68337;52.196;5.660;2023-05-09T03:40:15;69.05;;;37.92;;
75320;SDS011;68337;52.196;5.660;2023-05-09T03:42:40;71.55;;;38.53;;
75320;SDS011;68337;52.196;5.660;2023-05-09T03:45:06;62.63;;;36.75;;
75320;SDS011;68337;52.196;5.660;2023-05-09T03:47:32;68.00;;;38.20;;
75320;SDS011;68337;52.196;5.660;2023-05-09T03:49:58;70.30;;;37.42;;
75320;SDS011;68337;52.196;5.660;2023-05-09T03:52:24;71.97;;;38.08;;
75320;SDS011;68337;52.196;5.660;2023-05-09T03:54:49;67.50;;;37.60;;
75320;SDS011;68337;52.196;5.660;2023-05-09T03:57:15;62.33;;;36.67;;
75320;SDS011;68337;52.196;5.660;2023-05-09T03:59:40;62.20;;;35.70;;
75320;SDS011;68337;52.196;5.660;2023-05-09T04:02:06;63.78;;;36.35;;
75320;SDS011;68337;52.196;5.660;2023-05-09T04:04:32;60.35;;;34.70;;
75320;SDS011;68337;52.196;5.660;2023-05-09T04:06:57;66.22;;;36.20;;
75320;SDS011;68337;52.196;5.660;2023-05-09T04:09:23;63.92;;;36.92;;
75320;SDS011;68337;52.196;5.660;2023-05-09T04:11:49;66.57;;;37.70;;
75320;SDS011;68337;52.196;5.660;2023-05-09T04:14:15;69.55;;;39.95;;
75320;SDS011;68337;52.196;5.660;2023-05-09T04:16:42;65.97;;;35.65;;
75320;SDS011;68337;52.196;5.660;2023-05-09T04:19:07;62.20;;;36.42;;
75320;SDS011;68337;52.196;5.660;2023-05-09T04:21:34;70.00;;;38.45;;
75320;SDS011;68337;52.196;5.660;2023-05-09T04:24:00;71.10;;;37.30;;
75320;SDS011;68337;52.196;5.660;2023-05-09T04:26:26;79.28;;;40.85;;
75320;SDS011;68337;52.196;5.660;2023-05-09T04:28:51;69.95;;;38.90;;
75320;SDS011;68337;52.196;5.660;2023-05-09T04:31:17;74.18;;;37.85;;
75320;SDS011;68337;52.196;5.660;2023-05-09T04:33:43;69.63;;;37.20;;
75320;SDS011;68337;52.196;5.660;2023-05-09T04:36:09;69.43;;;37.50;;
75320;SDS011;68337;52.196;5.660;2023-05-09T04:38:35;64.90;;;36.33;;
75320;SDS011;68337;52.196;5.660;2023-05-09T04:41:01;67.65;;;36.67;;
75320;SDS011;68337;52.196;5.660;2023-05-09T04:43:26;68.00;;;37.78;;
75320;SDS011;68337;52.196;5.660;2023-05-09T04:45:52;63.42;;;36.13;;
75320;SDS011;68337;52.196;5.660;2023-05-09T04:48:18;67.03;;;36.83;;
75320;SDS011;68337;52.196;5.660;2023-05-09T04:50:43;62.60;;;36.70;;
75320;SDS011;68337;52.196;5.660;2023-05-09T04:53:12;74.45;;;38.80;;
75320;SDS011;68337;52.196;5.660;2023-05-09T04:55:38;73.82;;;37.50;;
75320;SDS011;68337;52.196;5.660;2023-05-09T04:58:03;66.00;;;36.10;;
75320;SDS011;68337;52.196;5.660;2023-05-09T05:00:29;68.32;;;35.47;;
75320;SDS011;68337;52.196;5.660;2023-05-09T05:02:55;65.60;;;34.67;;
75320;SDS011;68337;52.196;5.660;2023-05-09T05:05:20;62.55;;;35.00;;
75320;SDS011;68337;52.196;5.660;2023-05-09T05:07:46;59.72;;;33.78;;
75320;SDS011;68337;52.196;5.660;2023-05-09T05:10:12;57.50;;;34.28;;
75320;SDS011;68337;52.196;5.660;2023-05-09T05:12:37;56.72;;;33.05;;
75320;SDS011;68337;52.196;5.660;2023-05-09T05:15:03;56.50;;;33.22;;
75320;SDS011;68337;52.196;5.660;2023-05-09T05:17:29;55.53;;;31.92;;
75320;SDS011;68337;52.196;5.660;2023-05-09T05:19:55;53.13;;;31.75;;
75320;SDS011;68337;52.196;5.660;2023-05-09T05:22:21;57.03;;;33.85;;
75320;SDS011;68337;52.196;5.660;2023-05-09T05:24:47;53.17;;;30.95;;
75320;SDS011;68337;52.196;5.660;2023-05-09T05:27:12;52.03;;;31.08;;
75320;SDS011;68337;52.196;5.660;2023-05-09T05:29:38;46.72;;;28.95;;
75320;SDS011;68337;52.196;5.660;2023-05-09T05:32:03;47.60;;;27.70;;
75320;SDS011;68337;52.196;5.660;2023-05-09T05:34:29;40.83;;;26.33;;
75320;SDS011;68337;52.196;5.660;2023-05-09T05:36:55;46.35;;;27.20;;
75320;SDS011;68337;52.196;5.660;2023-05-09T05:39:20;45.90;;;26.75;;
75320;SDS011;68337;52.196;5.660;2023-05-09T05:41:46;48.35;;;28.52;;
75320;SDS011;68337;52.196;5.660;2023-05-09T05:44:12;40.47;;;26.40;;
75320;SDS011;68337;52.196;5.660;2023-05-09T05:46:37;42.40;;;26.17;;
75320;SDS011;68337;52.196;5.660;2023-05-09T05:49:03;43.22;;;26.25;;
75320;SDS011;68337;52.196;5.660;2023-05-09T05:51:28;42.42;;;26.08;;
75320;SDS011;68337;52.196;5.660;2023-05-09T05:53:55;40.28;;;25.42;;
75320;SDS011;68337;52.196;5.660;2023-05-09T05:56:20;35.58;;;22.75;;
75320;SDS011;68337;52.196;5.660;2023-05-09T05:58:46;35.03;;;23.88;;
75320;SDS011;68337;52.196;5.660;2023-05-09T06:01:12;41.67;;;24.63;;
75320;SDS011;68337;52.196;5.660;2023-05-09T06:03:38;30.75;;;21.23;;
75320;SDS011;68337;52.196;5.660;2023-05-09T06:06:04;31.35;;;20.75;;
75320;SDS011;68337;52.196;5.660;2023-05-09T06:08:30;33.75;;;21.95;;
75320;SDS011;68337;52.196;5.660;2023-05-09T06:10:55;32.90;;;22.70;;
75320;SDS011;68337;52.196;5.660;2023-05-09T06:13:21;37.60;;;24.95;;
75320;SDS011;68337;52.196;5.660;2023-05-09T06:15:47;42.80;;;25.15;;
75320;SDS011;68337;52.196;5.660;2023-05-09T06:18:12;38.08;;;24.13;;
75320;SDS011;68337;52.196;5.660;2023-05-09T06:20:38;41.50;;;24.92;;
75320;SDS011;68337;52.196;5.660;2023-05-09T06:23:04;38.70;;;24.88;;
75320;SDS011;68337;52.196;5.660;2023-05-09T06:25:30;31.63;;;22.40;;
75320;SDS011;68337;52.196;5.660;2023-05-09T06:27:55;32.45;;;21.88;;
75320;SDS011;68337;52.196;5.660;2023-05-09T06:30:21;33.97;;;23.25;;
75320;SDS011;68337;52.196;5.660;2023-05-09T06:32:47;32.10;;;20.75;;
75320;SDS011;68337;52.196;5.660;2023-05-09T06:35:12;30.52;;;19.65;;
75320;SDS011;68337;52.196;5.660;2023-05-09T06:37:38;28.55;;;20.48;;
75320;SDS011;68337;52.196;5.660;2023-05-09T06:40:04;30.45;;;19.42;;
75320;SDS011;68337;52.196;5.660;2023-05-09T06:42:31;31.75;;;20.08;;
75320;SDS011;68337;52.196;5.660;2023-05-09T06:44:57;28.23;;;18.70;;
75320;SDS011;68337;52.196;5.660;2023-05-09T06:47:23;33.08;;;19.85;;
75320;SDS011;68337;52.196;5.660;2023-05-09T06:49:48;26.80;;;17.75;;
75320;SDS011;68337;52.196;5.660;2023-05-09T06:52:14;29.52;;;19.35;;
75320;SDS011;68337;52.196;5.660;2023-05-09T06:54:41;29.15;;;19.13;;
75320;SDS011;68337;52.196;5.660;2023-05-09T06:57:07;32.75;;;19.88;;
75320;SDS011;68337;52.196;5.660;2023-05-09T06:59:32;32.22;;;18.45;;
75320;SDS011;68337;52.196;5.660;2023-05-09T07:01:58;32.15;;;19.13;;
75320;SDS011;68337;52.196;5.660;2023-05-09T07:04:23;28.70;;;18.77;;
75320;SDS011;68337;52.196;5.660;2023-05-09T07:06:49;27.40;;;17.92;;
75320;SDS011;68337;52.196;5.660;2023-05-09T07:09:15;30.52;;;18.05;;
75320;SDS011;68337;52.196;5.660;2023-05-09T07:11:44;25.95;;;17.60;;
75320;SDS011;68337;52.196;5.660;2023-05-09T07:14:10;23.58;;;16.17;;
75320;SDS011;68337;52.196;5.660;2023-05-09T07:16:36;27.75;;;16.88;;
75320;SDS011;68337;52.196;5.660;2023-05-09T07:19:01;28.38;;;17.48;;
75320;SDS011;68337;52.196;5.660;2023-05-09T07:21:27;26.25;;;16.55;;
75320;SDS011;68337;52.196;5.660;2023-05-09T07:23:53;23.10;;;16.20;;
75320;SDS011;68337;52.196;5.660;2023-05-09T07:26:18;25.95;;;17.13;;
75320;SDS011;68337;52.196;5.660;2023-05-09T07:28:45;26.50;;;17.45;;
75320;SDS011;68337;52.196;5.660;2023-05-09T07:31:11;24.98;;;17.13;;
75320;SDS011;68337;52.196;5.660;2023-05-09T07:33:36;23.35;;;16.98;;
75320;SDS011;68337;52.196;5.660;2023-05-09T07:36:05;23.58;;;17.05;;
75320;SDS011;68337;52.196;5.660;2023-05-09T07:38:31;22.13;;;16.35;;
75320;SDS011;68337;52.196;5.660;2023-05-09T07:40:57;24.67;;;16.63;;
75320;SDS011;68337;52.196;5.660;2023-05-09T07:43:22;18.05;;;14.43;;
75320;SDS011;68337;52.196;5.660;2023-05-09T07:45:48;24.30;;;15.68;;
75320;SDS011;68337;52.196;5.660;2023-05-09T07:48:13;22.90;;;15.98;;
75320;SDS011;68337;52.196;5.660;2023-05-09T07:50:39;20.27;;;15.10;;
75320;SDS011;68337;52.196;5.660;2023-05-09T07:53:05;21.10;;;15.52;;
75320;SDS011;68337;52.196;5.660;2023-05-09T07:55:30;20.50;;;14.52;;
75320;SDS011;68337;52.196;5.660;2023-05-09T07:57:56;20.35;;;15.07;;
75320;SDS011;68337;52.196;5.660;2023-05-09T08:00:22;20.00;;;14.45;;
75320;SDS011;68337;52.196;5.660;2023-05-09T08:02:49;18.05;;;14.48;;
75320;SDS011;68337;52.196;5.660;2023-05-09T08:05:15;20.95;;;15.40;;
75320;SDS011;68337;52.196;5.660;2023-05-09T08:07:41;19.48;;;14.27;;
75320;SDS011;68337;52.196;5.660;2023-05-09T08:10:07;19.52;;;15.50;;
75320;SDS011;68337;52.196;5.660;2023-05-09T08:12:33;19.52;;;15.00;;
75320;SDS011;68337;52.196;5.660;2023-05-09T08:14:59;19.42;;;15.25;;
75320;SDS011;68337;52.196;5.660;2023-05-09T08:17:24;18.67;;;15.32;;
75320;SDS011;68337;52.196;5.660;2023-05-09T08:19:50;18.13;;;14.82;;
75320;SDS011;68337;52.196;5.660;2023-05-09T08:22:16;20.35;;;14.82;;
75320;SDS011;68337;52.196;5.660;2023-05-09T08:24:46;19.30;;;15.50;;
75320;SDS011;68337;52.196;5.660;2023-05-09T08:27:12;19.90;;;16.45;;
75320;SDS011;68337;52.196;5.660;2023-05-09T08:29:38;19.75;;;15.35;;
75320;SDS011;68337;52.196;5.660;2023-05-09T08:32:04;19.05;;;15.80;;
75320;SDS011;68337;52.196;5.660;2023-05-09T08:34:30;20.00;;;15.82;;
75320;SDS011;68337;52.196;5.660;2023-05-09T08:36:58;19.10;;;15.98;;
75320;SDS011;68337;52.196;5.660;2023-05-09T08:39:25;18.13;;;15.65;;
75320;SDS011;68337;52.196;5.660;2023-05-09T08:41:50;17.75;;;15.05;;
75320;SDS011;68337;52.196;5.660;2023-05-09T08:44:19;16.80;;;14.60;;
75320;SDS011;68337;52.196;5.660;2023-05-09T08:46:47;16.85;;;15.02;;
75320;SDS011;68337;52.196;5.660;2023-05-09T08:49:16;19.25;;;14.18;;
75320;SDS011;68337;52.196;5.660;2023-05-09T08:51:42;15.52;;;13.63;;
75320;SDS011;68337;52.196;5.660;2023-05-09T08:54:10;15.57;;;13.43;;
75320;SDS011;68337;52.196;5.660;2023-05-09T08:56:36;15.43;;;13.68;;
75320;SDS011;68337;52.196;5.660;2023-05-09T08:59:02;17.98;;;13.68;;
75320;SDS011;68337;52.196;5.660;2023-05-09T09:01:29;16.63;;;13.68;;
75320;SDS011;68337;52.196;5.660;2023-05-09T09:03:59;15.38;;;13.77;;
75320;SDS011;68337;52.196;5.660;2023-05-09T09:06:26;15.52;;;13.93;;
75320;SDS011;68337;52.196;5.660;2023-05-09T09:08:54;17.85;;;13.93;;
75320;SDS011;68337;52.196;5.660;2023-05-09T09:11:21;15.50;;;13.80;;
75320;SDS011;68337;52.196;5.660;2023-05-09T09:13:48;15.95;;;13.73;;
75320;SDS011;68337;52.196;5.660;2023-05-09T09:16:17;14.45;;;12.63;;
75320;SDS011;68337;52.196;5.660;2023-05-09T09:18:46;16.48;;;12.80;;
75320;SDS011;68337;52.196;5.660;2023-05-09T09:21:14;14.07;;;12.63;;
75320;SDS011;68337;52.196;5.660;2023-05-09T09:23:43;13.80;;;11.68;;
75320;SDS011;68337;52.196;5.660;2023-05-09T09:26:11;15.32;;;12.07;;
75320;SDS011;68337;52.196;5.660;2023-05-09T09:28:39;21.10;;;11.82;;
75320;SDS011;68337;52.196;5.660;2023-05-09T09:33:50;14.98;;;12.43;;
75320;SDS011;68337;52.196;5.660;2023-05-09T09:36:21;15.27;;;13.70;;
75320;SDS011;68337;52.196;5.660;2023-05-09T09:38:55;16.50;;;12.43;;
75320;SDS011;68337;52.196;5.660;2023-05-09T09:43:57;15.45;;;13.38;;
75320;SDS011;68337;52.196;5.660;2023-05-09T09:46:23;15.65;;;12.68;;
75320;SDS011;68337;52.196;5.660;2023-05-09T09:48:48;14.55;;;11.90;;
75320;SDS011;68337;52.196;5.660;2023-05-09T09:51:18;13.98;;;11.80;;
75320;SDS011;68337;52.196;5.660;2023-05-09T09:53:45;11.73;;;10.52;;
75320;SDS011;68337;52.196;5.660;2023-05-09T09:56:11;14.88;;;11.75;;
75320;SDS011;68337;52.196;5.660;2023-05-09T09:58:37;11.90;;;10.68;;
75320;SDS011;68337;52.196;5.660;2023-05-09T10:01:09;11.55;;;10.32;;
75320;SDS011;68337;52.196;5.660;2023-05-09T10:03:41;12.95;;;9.30;;
75320;SDS011;68337;52.196;5.660;2023-05-09T10:06:12;10.40;;;8.73;;
75320;SDS011;68337;52.196;5.660;2023-05-09T10:08:40;10.90;;;8.50;;
75320;SDS011;68337;52.196;5.660;2023-05-09T10:11:07;8.85;;;7.95;;
75320;SDS011;68337;52.196;5.660;2023-05-09T10:13:34;8.30;;;7.50;;
75320;SDS011;68337;52.196;5.660;2023-05-09T10:16:01;8.57;;;7.72;;
75320;SDS011;68337;52.196;5.660;2023-05-09T10:18:29;8.10;;;7.40;;
75320;SDS011;68337;52.196;5.660;2023-05-09T10:20:55;8.30;;;7.50;;
75320;SDS011;68337;52.196;5.660;2023-05-09T10:23:27;8.13;;;7.43;;
75320;SDS011;68337;52.196;5.660;2023-05-09T10:28:44;7.80;;;7.10;;
75320;SDS011;68337;52.196;5.660;2023-05-09T10:31:15;8.45;;;7.28;;
75320;SDS011;68337;52.196;5.660;2023-05-09T10:33:48;7.20;;;6.60;;
75320;SDS011;68337;52.196;5.660;2023-05-09T10:36:15;8.35;;;6.55;;
75320;SDS011;68337;52.196;5.660;2023-05-09T10:38:44;8.15;;;6.85;;
75320;SDS011;68337;52.196;5.660;2023-05-09T10:41:12;7.80;;;7.13;;
75320;SDS011;68337;52.196;5.660;2023-05-09T10:43:38;9.35;;;7.35;;
75320;SDS011;68337;52.196;5.660;2023-05-09T10:46:04;8.18;;;7.38;;
75320;SDS011;68337;52.196;5.660;2023-05-09T10:48:34;9.20;;;8.23;;
75320;SDS011;68337;52.196;5.660;2023-05-09T10:51:01;8.23;;;7.43;;
75320;SDS011;68337;52.196;5.660;2023-05-09T10:53:49;8.15;;;7.30;;
75320;SDS011;68337;52.196;5.660;2023-05-09T10:56:24;11.18;;;8.38;;
75320;SDS011;68337;52.196;5.660;2023-05-09T10:58:50;8.82;;;7.93;;
75320;SDS011;68337;52.196;5.660;2023-05-09T11:01:36;8.00;;;7.03;;
75320;SDS011;68337;52.196;5.660;2023-05-09T11:04:12;9.02;;;8.18;;
75320;SDS011;68337;52.196;5.660;2023-05-09T11:09:27;9.57;;;7.63;;
75320;SDS011;68337;52.196;5.660;2023-05-09T11:12:11;8.30;;;7.50;;
75320;SDS011;68337;52.196;5.660;2023-05-09T11:22:13;9.07;;;7.68;;
75320;SDS011;68337;52.196;5.660;2023-05-09T11:24:49;8.02;;;7.20;;
75320;SDS011;68337;52.196;5.660;2023-05-09T11:27:19;6.88;;;6.28;;
75320;SDS011;68337;52.196;5.660;2023-05-09T11:29:49;6.88;;;6.22;;
75320;SDS011;68337;52.196;5.660;2023-05-09T11:32:17;7.38;;;6.45;;
75320;SDS011;68337;52.196;5.660;2023-05-09T11:34:44;11.85;;;8.45;;
75320;SDS011;68337;52.196;5.660;2023-05-09T11:37:15;7.22;;;6.63;;
75320;SDS011;68337;52.196;5.660;2023-05-09T11:39:54;12.40;;;8.50;;
75320;SDS011;68337;52.196;5.660;2023-05-09T11:42:26;8.85;;;7.50;;
75320;SDS011;68337;52.196;5.660;2023-05-09T11:44:53;7.32;;;6.57;;
75320;SDS011;68337;52.196;5.660;2023-05-09T11:47:20;7.43;;;6.72;;
75320;SDS011;68337;52.196;5.660;2023-05-09T11:49:46;6.32;;;5.57;;
75320;SDS011;68337;52.196;5.660;2023-05-09T11:52:16;5.60;;;5.18;;
75320;SDS011;68337;52.196;5.660;2023-05-09T11:54:43;5.85;;;5.35;;
75320;SDS011;68337;52.196;5.660;2023-05-09T11:57:09;5.93;;;5.43;;
75320;SDS011;68337;52.196;5.660;2023-05-09T11:59:41;5.07;;;4.68;;
75320;SDS011;68337;52.196;5.660;2023-05-09T12:02:08;7.82;;;5.60;;
75320;SDS011;68337;52.196;5.660;2023-05-09T12:04:34;5.93;;;5.10;;
75320;SDS011;68337;52.196;5.660;2023-05-09T12:07:00;6.30;;;5.72;;
75320;SDS011;68337;52.196;5.660;2023-05-09T12:09:34;5.50;;;4.95;;
75320;SDS011;68337;52.196;5.660;2023-05-09T12:12:12;6.20;;;5.65;;
75320;SDS011;68337;52.196;5.660;2023-05-09T12:14:38;5.35;;;4.85;;
75320;SDS011;68337;52.196;5.660;2023-05-09T12:17:05;6.78;;;5.43;;
75320;SDS011;68337;52.196;5.660;2023-05-09T12:19:32;7.50;;;6.10;;
75320;SDS011;68337;52.196;5.660;2023-05-09T12:21:58;7.97;;;6.65;;
75320;SDS011;68337;52.196;5.660;2023-05-09T12:24:26;9.48;;;6.20;;
75320;SDS011;68337;52.196;5.660;2023-05-09T12:26:53;7.88;;;6.60;;
75320;SDS011;68337;52.196;5.660;2023-05-09T12:29:23;8.32;;;6.90;;
75320;SDS011;68337;52.196;5.660;2023-05-09T12:31:49;8.38;;;7.68;;
75320;SDS011;68337;52.196;5.660;2023-05-09T12:34:17;8.00;;;7.20;;
75320;SDS011;68337;52.196;5.660;2023-05-09T12:36:43;10.07;;;9.10;;
75320;SDS011;68337;52.196;5.660;2023-05-09T12:39:15;10.45;;;9.48;;
75320;SDS011;68337;52.196;5.660;2023-05-09T12:41:45;11.98;;;10.35;;
75320;SDS011;68337;52.196;5.660;2023-05-09T12:44:19;12.82;;;10.95;;
75320;SDS011;68337;52.196;5.660;2023-05-09T12:46:55;11.57;;;10.55;;
75320;SDS011;68337;52.196;5.660;2023-05-09T12:49:23;11.80;;;10.70;;
75320;SDS011;68337;52.196;5.660;2023-05-09T12:51:51;11.43;;;9.85;;
75320;SDS011;68337;52.196;5.660;2023-05-09T12:54:21;11.40;;;8.48;;
75320;SDS011;68337;52.196;5.660;2023-05-09T12:56:47;9.80;;;8.80;;
75320;SDS011;68337;52.196;5.660;2023-05-09T12:59:18;9.20;;;8.35;;
75320;SDS011;68337;52.196;5.660;2023-05-09T13:01:49;10.25;;;7.30;;
75320;SDS011;68337;52.196;5.660;2023-05-09T13:04:18;8.65;;;7.75;;
75320;SDS011;68337;52.196;5.660;2023-05-09T13:06:48;8.38;;;7.57;;
75320;SDS011;68337;52.196;5.660;2023-05-09T13:09:16;9.52;;;7.45;;
75320;SDS011;68337;52.196;5.660;2023-05-09T13:11:42;7.53;;;6.88;;
75320;SDS011;68337;52.196;5.660;2023-05-09T13:14:09;7.53;;;6.85;;
75320;SDS011;68337;52.196;5.660;2023-05-09T13:16:35;7.82;;;6.93;;
75320;SDS011;68337;52.196;5.660;2023-05-09T13:19:00;9.30;;;6.20;;
75320;SDS011;68337;52.196;5.660;2023-05-09T13:21:26;7.57;;;6.82;;
75320;SDS011;68337;52.196;5.660;2023-05-09T13:23:52;6.00;;;5.53;;
75320;SDS011;68337;52.196;5.660;2023-05-09T13:26:18;7.03;;;5.75;;
75320;SDS011;68337;52.196;5.660;2023-05-09T13:28:45;5.80;;;5.25;;
75320;SDS011;68337;52.196;5.660;2023-05-09T13:31:10;6.25;;;5.43;;
75320;SDS011;68337;52.196;5.660;2023-05-09T13:33:36;5.20;;;4.75;;
75320;SDS011;68337;52.196;5.660;2023-05-09T13:36:02;4.90;;;4.45;;
75320;SDS011;68337;52.196;5.660;2023-05-09T13:38:27;4.57;;;4.18;;
75320;SDS011;68337;52.196;5.660;2023-05-09T13:40:59;5.47;;;5.03;;
75320;SDS011;68337;52.196;5.660;2023-05-09T13:43:25;4.68;;;4.13;;
75320;SDS011;68337;52.196;5.660;2023-05-09T13:45:51;5.43;;;4.90;;
75320;SDS011;68337;52.196;5.660;2023-05-09T13:48:17;4.93;;;4.53;;
75320;SDS011;68337;52.196;5.660;2023-05-09T13:50:42;5.93;;;5.43;;
75320;SDS011;68337;52.196;5.660;2023-05-09T13:53:08;5.60;;;5.18;;
75320;SDS011;68337;52.196;5.660;2023-05-09T13:55:34;8.02;;;5.63;;
75320;SDS011;68337;52.196;5.660;2023-05-09T13:57:59;5.55;;;5.15;;
75320;SDS011;68337;52.196;5.660;2023-05-09T14:00:25;6.22;;;5.63;;
75320;SDS011;68337;52.196;5.660;2023-05-09T14:02:51;8.05;;;5.70;;
75320;SDS011;68337;52.196;5.660;2023-05-09T14:05:16;5.80;;;5.30;;
75320;SDS011;68337;52.196;5.660;2023-05-09T14:07:42;6.60;;;6.00;;
75320;SDS011;68337;52.196;5.660;2023-05-09T14:10:09;5.78;;;5.25;;
75320;SDS011;68337;52.196;5.660;2023-05-09T14:12:35;5.68;;;5.07;;
75320;SDS011;68337;52.196;5.660;2023-05-09T14:15:03;7.07;;;5.30;;
75320;SDS011;68337;52.196;5.660;2023-05-09T14:17:30;5.88;;;5.47;;
75320;SDS011;68337;52.196;5.660;2023-05-09T14:19:56;5.50;;;5.10;;
75320;SDS011;68337;52.196;5.660;2023-05-09T14:22:22;5.93;;;5.43;;
75320;SDS011;68337;52.196;5.660;2023-05-09T14:24:47;6.82;;;5.47;;
75320;SDS011;68337;52.196;5.660;2023-05-09T14:27:13;5.55;;;5.15;;
75320;SDS011;68337;52.196;5.660;2023-05-09T14:29:39;6.28;;;5.70;;
75320;SDS011;68337;52.196;5.660;2023-05-09T14:32:05;5.47;;;5.15;;
75320;SDS011;68337;52.196;5.660;2023-05-09T14:34:32;5.63;;;5.22;;
75320;SDS011;68337;52.196;5.660;2023-05-09T14:36:57;5.90;;;5.43;;
75320;SDS011;68337;52.196;5.660;2023-05-09T14:39:23;6.63;;;5.95;;
75320;SDS011;68337;52.196;5.660;2023-05-09T14:41:49;5.45;;;5.05;;
75320;SDS011;68337;52.196;5.660;2023-05-09T14:44:16;5.78;;;5.30;;
75320;SDS011;68337;52.196;5.660;2023-05-09T14:46:41;5.57;;;5.20;;
75320;SDS011;68337;52.196;5.660;2023-05-09T14:49:07;6.25;;;5.75;;
75320;SDS011;68337;52.196;5.660;2023-05-09T14:51:33;5.15;;;4.78;;
75320;SDS011;68337;52.196;5.660;2023-05-09T14:53:59;6.22;;;5.63;;
75320;SDS011;68337;52.196;5.660;2023-05-09T14:56:27;6.00;;;5.50;;
75320;SDS011;68337;52.196;5.660;2023-05-09T14:58:53;6.28;;;5.78;;
75320;SDS011;68337;52.196;5.660;2023-05-09T15:01:18;6.93;;;6.30;;